This demonstration page uses our WeatherBlox Daily Observations layout. Learn more.

36.17497, -115.13722

Hourly Observations for April 14, 2018

Temp ( °F °C ) Dew Point ( °F °C ) Humidity (%) Winds ( mph kmh ) Pressure ( in mb ) Visibility ( mi km ) Precip ( " mm )
12:53 am 00:53 Clear 57 13.9 8 -13.3 14 14 E 5 7 30.3 1026 10 16.09344 0 0
1:53 am 01:53 Clear 57 13.9 10 -12.2 15 15 E 8 13 30.3 1026 10 16.09344 0 0
2:53 am 02:53 Clear 57 13.9 10 -12.2 15 15 E 3 6 30.3 1026 10 16.09344 0 0
3:53 am 03:53 Clear 56 13.3 10 -12.2 16 16 NW 6 9 30.3 1026 10 16.09344 0 0
4:53 am 04:53 Clear 53 11.7 12 -11.1 19 19 SW 3 6 30.33 1027 10 16.09344 0 0
5:53 am 05:53 Clear 53 11.7 14 -10 21 21 WSW 6 9 30.33 1027 10 16.09344 0 0
6:53 am 06:53 Sunny 53 11.7 15 -9.4 22 22 WSW 3 6 30.36 1028 10 16.09344 0 0
7:53 am 07:53 Sunny 57 13.9 10 -12.2 15 15 S 5 7 30.36 1028 10 16.09344 0 0
8:53 am 08:53 Sunny 61 16.1 11 -11.7 14 14 SSW 3 6 30.36 1028 10 16.09344 0 0
9:53 am 09:53 Sunny 63 17.2 13 -10.6 14 14 S 3 6 30.36 1028 10 16.09344 0 0
10:53 am 10:53 Sunny 66 18.9 12 -11.1 12 12 Calm 30.33 1027 10 16.09344 0 0
11:53 am 11:53 Sunny 68 20 12 -11.1 11 11 N 6 9 30.3 1026 10 16.09344 0 0
12:53 pm 12:53 Sunny 69 20.6 11 -11.7 10 10 Calm 30.27 1025 10 16.09344 0 0
1:53 pm 13:53 Sunny 70 21.1 11 -11.7 10 10 Calm 30.24 1024 10 16.09344 0 0
2:53 pm 14:53 Sunny 72 22.2 11 -11.7 9 9 Calm 30.18 1022 10 16.09344 0 0
3:53 pm 15:53 Sunny 74 23.3 12 -11.1 9 9 SSW 5 7 30.15 1021 10 16.09344 0 0
4:53 pm 16:53 Sunny 76 24.4 12 -11.1 9 9 Calm 30.12 1020 10 16.09344 0 0
5:53 pm 17:53 Sunny 76 24.4 12 -11.1 9 9 ESE 3 6 30.09 1019 10 16.09344 0 0
6:53 pm 18:53 Sunny 74 23.3 12 -11.1 9 9 SE 7 11 30.09 1019 10 16.09344 0 0
7:53 pm 19:53 Clear 72 22.2 13 -10.6 10 10 ESE 3 6 30.09 1019 10 16.09344 0 0
8:53 pm 20:53 Clear 71 21.7 14 -10 11 11 Calm 30.09 1019 10 16.09344 0 0
9:53 pm 21:53 Clear 66 18.9 19 -7.2 16 16 NNW 6 9 30.09 1019 10 16.09344 0 0
10:53 pm 22:53 Clear 64 17.8 21 -6.1 19 19 NNW 5 7 30.06 1018 10 16.09344 0 0
11:53 pm 23:53 Clear 62 16.7 22 -5.6 21 21 WNW 6 9 30.06 1018 10 16.09344 0 0

Powered by AerisWeather